createdAt,value
2019-03-02T00:00:18.829Z,0
2019-03-02T00:01:19.236Z,0
2019-03-02T00:02:27.293Z,0
2019-03-02T00:02:32.183Z,0
2019-03-02T00:03:37.455Z,0
2019-03-02T00:03:44.623Z,0
2019-03-02T00:04:50.920Z,0
2019-03-02T00:04:57.768Z,0
2019-03-02T00:06:03.564Z,0
2019-03-02T00:06:10.387Z,0
2019-03-02T00:07:13.964Z,0
2019-03-02T00:08:13.980Z,0
2019-03-02T00:09:14.387Z,0
2019-03-02T00:10:14.794Z,0
2019-03-02T00:11:22.278Z,0
2019-03-02T00:11:27.804Z,0
2019-03-02T00:12:34.157Z,0
2019-03-02T00:12:40.384Z,0
2019-03-02T00:13:46.346Z,0
2019-03-02T00:14:45.487Z,0
2019-03-02T00:15:45.893Z,0
2019-03-02T00:16:47.032Z,0
2019-03-02T00:17:50.541Z,0
2019-03-02T00:18:01.625Z,0
2019-03-02T00:19:02.857Z,0
2019-03-02T00:19:12.047Z,0
2019-03-02T00:20:25.015Z,0
2019-03-02T00:21:38.181Z,0
2019-03-02T00:22:46.132Z,0
2019-03-02T00:22:51.088Z,0
2019-03-02T00:23:56.183Z,0
2019-03-02T00:25:05.123Z,0
2019-03-02T00:26:12.349Z,0
2019-03-02T00:26:18.006Z,0
2019-03-02T00:27:23.835Z,0
2019-03-02T00:28:23.241Z,0
2019-03-02T00:29:24.226Z,0
2019-03-02T00:30:24.911Z,0
2019-03-02T00:31:26.158Z,0
2019-03-02T00:31:38.487Z,0
2019-03-02T00:32:45.997Z,0
2019-03-02T00:32:51.273Z,0
2019-03-02T00:33:59.018Z,0
2019-03-02T00:34:03.872Z,0
2019-03-02T00:35:09.911Z,0
2019-03-02T00:36:10.151Z,0
2019-03-02T00:37:10.392Z,0
2019-03-02T00:38:12.037Z,0
2019-03-02T00:39:12.163Z,0
2019-03-02T00:39:25.508Z,0
2019-03-02T00:40:37.364Z,0
2019-03-02T00:41:44.254Z,0
2019-03-02T00:41:51.251Z,0
2019-03-02T00:42:53.962Z,0
2019-03-02T00:43:53.861Z,0
2019-03-02T00:44:54.002Z,0
2019-03-02T00:45:54.982Z,0
2019-03-02T00:47:01.812Z,0
2019-03-02T00:47:08.271Z,0
2019-03-02T00:48:14.661Z,0
2019-03-02T00:48:21.675Z,0
2019-03-02T00:49:25.207Z,0
2019-03-02T00:50:25.606Z,0
2019-03-02T00:51:26.309Z,0
2019-03-02T00:52:26.821Z,0
2019-03-02T00:53:26.790Z,0
2019-03-02T00:54:27.488Z,0
2019-03-02T00:55:33.511Z,0
2019-03-02T00:55:41.254Z,0
2019-03-02T00:56:45.103Z,0
2019-03-02T00:57:46.078Z,0
2019-03-02T00:58:46.782Z,0
2019-03-02T00:59:47.187Z,0
2019-03-02T01:01:00.189Z,0
2019-03-02T01:02:07.107Z,0
2019-03-02T01:02:12.761Z,0
2019-03-02T01:03:18.007Z,0
2019-03-02T01:04:17.133Z,0
2019-03-02T01:05:18.371Z,0
2019-03-02T01:06:18.777Z,0
2019-03-02T01:07:25.734Z,0
2019-03-02T01:07:32.223Z,0
2019-03-02T01:08:36.881Z,0
2019-03-02T01:09:34.345Z,0
2019-03-02T01:10:34.746Z,0
2019-03-02T01:11:36.169Z,0
2019-03-02T01:12:40.307Z,0
2019-03-02T01:12:50.181Z,0
2019-03-02T01:13:49.919Z,0
2019-03-02T01:14:02.084Z,0
2019-03-02T01:15:14.691Z,0
2019-03-02T01:16:22.233Z,0
2019-03-02T01:16:27.541Z,0
2019-03-02T01:17:32.938Z,0
2019-03-02T01:18:33.343Z,0
2019-03-02T01:19:35.028Z,0
2019-03-02T01:20:35.992Z,0
2019-03-02T01:21:48.720Z,0
2019-03-02T01:22:54.268Z,0
2019-03-02T01:23:51.230Z,0
2019-03-02T01:24:51.636Z,0
2019-03-02T01:25:53.322Z,0
2019-03-02T01:27:06.321Z,0
2019-03-02T01:28:11.864Z,0
2019-03-02T01:28:18.470Z,0
2019-03-02T01:29:21.554Z,0
2019-03-02T01:30:21.691Z,0
2019-03-02T01:31:22.159Z,0
2019-03-02T01:32:22.843Z,0
2019-03-02T01:33:35.568Z,0
2019-03-02T01:34:47.624Z,0
2019-03-02T01:35:48.192Z,0
2019-03-02T01:36:48.331Z,0
2019-03-02T01:37:49.570Z,0
2019-03-02T01:38:56.648Z,0
2019-03-02T01:39:02.051Z,0
2019-03-02T01:40:07.620Z,0
2019-03-02T01:41:07.039Z,0
2019-03-02T01:42:07.724Z,0
2019-03-02T01:43:08.684Z,0
2019-03-02T01:44:08.825Z,0
2019-03-02T01:45:09.598Z,0
2019-03-02T01:46:09.727Z,0
2019-03-02T01:47:17.917Z,0
2019-03-02T01:47:22.893Z,0
2019-03-02T01:48:29.391Z,0
2019-03-02T01:48:37.340Z,0
2019-03-02T01:49:38.861Z,0
2019-03-02T01:50:38.987Z,0
2019-03-02T01:51:40.115Z,0
2019-03-02T01:52:41.350Z,0
2019-03-02T01:53:48.080Z,0
2019-03-02T01:53:53.521Z,0
2019-03-02T01:54:58.305Z,0
2019-03-02T01:55:57.990Z,0
2019-03-02T01:56:58.680Z,0
2019-03-02T01:57:59.358Z,0
2019-03-02T01:59:06.498Z,0
2019-03-02T01:59:12.078Z,0
2019-03-02T02:00:15.677Z,0
2019-03-02T02:01:16.692Z,0
2019-03-02T02:02:17.125Z,0
2019-03-02T02:03:18.085Z,0
2019-03-02T02:04:25.035Z,0
2019-03-02T02:04:30.228Z,0
2019-03-02T02:05:34.212Z,0
2019-03-02T02:06:34.617Z,0
2019-03-02T02:07:35.023Z,0
2019-03-02T02:08:35.462Z,0
2019-03-02T02:09:42.819Z,0
2019-03-02T02:09:48.184Z,0
2019-03-02T02:10:49.318Z,0
2019-03-02T02:11:55.430Z,0
2019-03-02T02:12:00.682Z,0
2019-03-02T02:13:08.686Z,0
2019-03-02T02:13:14.556Z,0
2019-03-02T02:14:20.825Z,0
2019-03-02T02:14:26.863Z,0
2019-03-02T02:15:31.790Z,0
2019-03-02T02:16:32.201Z,0
2019-03-02T02:17:32.888Z,0
2019-03-02T02:18:33.307Z,0
2019-03-02T02:19:40.740Z,0
2019-03-02T02:19:46.028Z,0
2019-03-02T02:20:53.102Z,0
2019-03-02T02:20:58.906Z,0
2019-03-02T02:22:04.251Z,0
2019-03-02T02:23:01.377Z,0
2019-03-02T02:24:03.058Z,0
2019-03-02T02:25:03.987Z,0
2019-03-02T02:26:16.991Z,0
2019-03-02T02:27:24.759Z,0
2019-03-02T02:27:29.355Z,0
2019-03-02T02:28:34.783Z,0
2019-03-02T02:29:34.191Z,0
2019-03-02T02:30:35.161Z,0
2019-03-02T02:31:47.843Z,0
2019-03-02T02:32:32.929Z,0
2019-03-02T02:33:33.151Z,0
2019-03-02T02:33:46.076Z,0
2019-03-02T02:34:31.767Z,0
2019-03-02T02:35:45.267Z,0
2019-03-02T02:36:45.825Z,0
2019-03-02T02:37:46.345Z,0
2019-03-02T02:38:59.721Z,0
2019-03-02T02:40:00.869Z,0
2019-03-02T02:41:01.128Z,0
2019-03-02T02:42:12.967Z,0
2019-03-02T02:43:25.872Z,0
2019-03-02T02:44:26.819Z,0
2019-03-02T02:45:28.446Z,0
2019-03-02T02:46:41.005Z,0
2019-03-02T02:47:56.010Z,0
2019-03-02T02:48:54.885Z,0
2019-03-02T02:49:55.569Z,0
2019-03-02T02:50:56.853Z,0
2019-03-02T02:51:57.705Z,0
2019-03-02T02:53:10.998Z,0
2019-03-02T02:54:11.196Z,0
2019-03-02T02:55:12.434Z,0
2019-03-02T02:56:26.744Z,0
2019-03-02T02:57:27.597Z,0
2019-03-02T02:57:40.802Z,0
2019-03-02T02:58:26.099Z,0
2019-03-02T02:59:26.796Z,0
2019-03-02T03:00:27.810Z,0
2019-03-02T03:01:40.260Z,0
2019-03-02T03:02:40.951Z,0
2019-03-02T03:03:41.639Z,0
2019-03-02T03:04:42.878Z,0
2019-03-02T03:05:43.291Z,0
2019-03-02T03:05:57.012Z,0
2019-03-02T03:06:56.250Z,0
2019-03-02T03:07:57.949Z,0
2019-03-02T03:08:59.203Z,0
2019-03-02T03:09:59.734Z,0
2019-03-02T03:11:12.280Z,0
2019-03-02T03:12:11.972Z,0
2019-03-02T03:13:12.961Z,0
2019-03-02T03:14:25.972Z,0
2019-03-02T03:15:26.701Z,0
2019-03-02T03:15:40.863Z,0
2019-03-02T03:16:39.663Z,0
2019-03-02T03:17:40.939Z,0
2019-03-02T03:18:40.929Z,0
2019-03-02T03:19:42.171Z,0
2019-03-02T03:20:54.375Z,0
2019-03-02T03:21:54.329Z,0
2019-03-02T03:22:55.301Z,0
2019-03-02T03:24:09.183Z,0
2019-03-02T03:25:17.975Z,0
2019-03-02T03:25:21.227Z,0
2019-03-02T03:26:05.945Z,0
2019-03-02T03:27:18.286Z,0
2019-03-02T03:28:19.293Z,0
2019-03-02T03:29:19.538Z,0
2019-03-02T03:30:46.478Z,0
2019-03-02T03:31:34.120Z,0
2019-03-02T03:32:21.336Z,0
2019-03-02T03:33:08.200Z,0
2019-03-02T03:33:53.987Z,0
2019-03-02T03:34:40.261Z,0
2019-03-02T03:35:26.349Z,0
2019-03-02T03:36:38.119Z,0
2019-03-02T03:37:39.293Z,0
2019-03-02T03:38:39.857Z,0
2019-03-02T03:39:52.450Z,0
2019-03-02T03:40:53.289Z,0
2019-03-02T03:41:53.539Z,0
2019-03-02T03:43:06.618Z,0
2019-03-02T03:43:51.814Z,0
2019-03-02T03:44:52.932Z,0
2019-03-02T03:45:52.623Z,0
2019-03-02T03:47:05.952Z,0
2019-03-02T03:48:06.499Z,0
2019-03-02T03:49:08.901Z,0
2019-03-02T03:50:22.218Z,0
2019-03-02T03:51:34.446Z,0
2019-03-02T03:52:35.549Z,0
2019-03-02T03:53:35.249Z,0
2019-03-02T03:54:45.275Z,0
2019-03-02T03:54:48.270Z,0
2019-03-02T03:55:34.006Z,0
2019-03-02T03:56:45.761Z,0
2019-03-02T03:57:47.043Z,0
2019-03-02T03:58:47.281Z,0
2019-03-02T03:59:48.247Z,0
2019-03-02T04:00:02.665Z,0
2019-03-02T04:00:48.290Z,0
2019-03-02T04:02:00.122Z,0
2019-03-02T04:03:02.006Z,0
2019-03-02T04:04:02.694Z,0
2019-03-02T04:05:14.752Z,0
2019-03-02T04:06:16.221Z,0
2019-03-02T04:07:17.026Z,0
2019-03-02T04:08:18.385Z,0
2019-03-02T04:08:30.871Z,0
2019-03-02T04:09:17.908Z,0
2019-03-02T04:10:29.950Z,0
2019-03-02T04:11:31.560Z,0
2019-03-02T04:12:32.095Z,0
2019-03-02T04:13:33.480Z,0
2019-03-02T04:13:48.088Z,0
2019-03-02T04:14:45.996Z,0
2019-03-02T04:15:46.152Z,0
2019-03-02T04:16:46.835Z,0
2019-03-02T04:17:48.414Z,0
2019-03-02T04:19:01.574Z,0
2019-03-02T04:20:01.859Z,0
2019-03-02T04:21:01.831Z,0
2019-03-02T04:22:13.312Z,0
2019-03-02T04:23:26.226Z,0
2019-03-02T04:24:26.759Z,0
2019-03-02T04:25:27.737Z,0
2019-03-02T04:26:40.992Z,0
2019-03-02T04:27:40.905Z,0
2019-03-02T04:28:41.443Z,0
2019-03-02T04:29:56.846Z,0
2019-03-02T04:30:54.493Z,0
2019-03-02T04:31:54.459Z,0
2019-03-02T04:32:55.451Z,0
2019-03-02T04:33:55.412Z,0
2019-03-02T04:35:01.304Z,0
2019-03-02T04:35:08.133Z,0
2019-03-02T04:36:12.960Z,0
2019-03-02T04:37:13.540Z,0
2019-03-02T04:38:13.672Z,0
2019-03-02T04:39:17.378Z,0
2019-03-02T04:40:23.245Z,0
2019-03-02T04:40:30.781Z,0
2019-03-02T04:41:29.276Z,0
2019-03-02T04:42:29.963Z,0
2019-03-02T04:43:30.371Z,0
2019-03-02T04:44:32.782Z,0
2019-03-02T04:45:36.401Z,0
2019-03-02T04:45:45.505Z,0
2019-03-02T04:46:57.810Z,0
2019-03-02T04:48:10.288Z,0
2019-03-02T04:49:17.031Z,0
2019-03-02T04:49:23.888Z,0
2019-03-02T04:50:29.815Z,0
2019-03-02T04:51:29.498Z,0
2019-03-02T04:52:29.921Z,0
2019-03-02T04:53:30.893Z,0
2019-03-02T04:54:45.350Z,0
2019-03-02T04:55:50.851Z,0
2019-03-02T04:56:48.533Z,0
2019-03-02T04:57:48.942Z,0
2019-03-02T04:58:49.624Z,0
2019-03-02T04:59:50.029Z,0
2019-03-02T05:00:01.790Z,0
2019-03-02T05:01:09.080Z,0
2019-03-02T05:01:14.677Z,0
2019-03-02T05:02:21.404Z,0
2019-03-02T05:02:27.746Z,0
2019-03-02T05:03:27.831Z,0
2019-03-02T05:04:34.079Z,0
2019-03-02T05:04:41.282Z,0
2019-03-02T05:05:45.608Z,0
2019-03-02T05:06:46.566Z,0
2019-03-02T05:06:58.730Z,0
2019-03-02T05:08:11.728Z,0
2019-03-02T05:09:18.959Z,0
2019-03-02T05:09:24.299Z,0
2019-03-02T05:10:31.309Z,0
2019-03-02T05:10:37.378Z,0
2019-03-02T05:11:42.966Z,0
2019-03-02T05:12:42.373Z,0
2019-03-02T05:13:43.054Z,0
2019-03-02T05:14:44.574Z,0
2019-03-02T05:15:44.541Z,0
2019-03-02T05:16:44.844Z,0
2019-03-02T05:17:45.834Z,0
2019-03-02T05:18:59.116Z,0
2019-03-02T05:20:12.188Z,0
2019-03-02T05:21:13.021Z,0
2019-03-02T05:22:20.646Z,0
2019-03-02T05:22:27.244Z,0
2019-03-02T05:23:32.434Z,0
2019-03-02T05:24:30.127Z,0
2019-03-02T05:25:30.534Z,0
2019-03-02T05:26:31.219Z,0
2019-03-02T05:27:34.081Z,0
2019-03-02T05:28:34.539Z,0
2019-03-02T05:29:34.668Z,0
2019-03-02T05:30:35.630Z,0
2019-03-02T05:31:42.938Z,0
2019-03-02T05:31:48.073Z,0
2019-03-02T05:32:54.719Z,0
2019-03-02T05:33:02.091Z,0
2019-03-02T05:34:07.618Z,0
2019-03-02T05:34:14.944Z,0
2019-03-02T05:35:18.510Z,4
2019-03-02T05:36:17.918Z,4
2019-03-02T05:37:18.927Z,0
2019-03-02T05:38:19.197Z,0
2019-03-02T05:39:20.160Z,4
2019-03-02T05:40:20.567Z,4
2019-03-02T05:40:32.732Z,4
2019-03-02T05:41:44.822Z,4
2019-03-02T05:42:57.965Z,8
2019-03-02T05:43:58.803Z,4
2019-03-02T05:44:59.486Z,8
2019-03-02T05:46:00.215Z,4
2019-03-02T05:47:04.804Z,4
2019-03-02T05:48:07.591Z,4
2019-03-02T05:49:07.107Z,4
2019-03-02T05:50:06.791Z,8
2019-03-02T05:51:09.564Z,8
2019-03-02T05:52:10.528Z,4
2019-03-02T05:52:22.016Z,8
2019-03-02T05:53:22.768Z,8
2019-03-02T05:54:23.661Z,8
2019-03-02T05:55:24.345Z,12
2019-03-02T05:56:30.905Z,12
2019-03-02T05:56:37.073Z,12
2019-03-02T05:57:42.447Z,16
2019-03-02T05:58:39.133Z,16
2019-03-02T05:59:39.263Z,20
2019-03-02T06:00:40.688Z,24
2019-03-02T06:01:42.962Z,24
2019-03-02T06:02:43.102Z,24
2019-03-02T06:03:48.280Z,32
2019-03-02T06:04:48.683Z,32
2019-03-02T06:05:49.369Z,32
2019-03-02T06:07:02.097Z,32
2019-03-02T06:08:02.509Z,36
2019-03-02T06:09:03.195Z,36
2019-03-02T06:10:04.156Z,36
2019-03-02T06:11:07.655Z,36
2019-03-02T06:12:05.898Z,36
2019-03-02T06:13:06.302Z,44
2019-03-02T06:14:08.619Z,48
2019-03-02T06:15:10.092Z,48
2019-03-02T06:16:10.891Z,48
2019-03-02T06:17:11.020Z,48
2019-03-02T06:18:11.856Z,52
2019-03-02T06:19:13.824Z,52
2019-03-02T06:19:25.614Z,56
2019-03-02T06:20:26.120Z,56
2019-03-02T06:21:27.361Z,60
2019-03-02T06:22:26.774Z,60
2019-03-02T06:23:31.614Z,60
2019-03-02T06:24:28.860Z,60
2019-03-02T06:25:28.990Z,56
2019-03-02T06:26:41.714Z,56
2019-03-02T06:27:54.841Z,56
2019-03-02T06:28:59.678Z,60
2019-03-02T06:29:06.852Z,60
2019-03-02T06:30:10.733Z,64
2019-03-02T06:31:11.419Z,64
2019-03-02T06:32:12.103Z,68
2019-03-02T06:33:12.789Z,68
2019-03-02T06:34:19.691Z,72
2019-03-02T06:34:24.970Z,76
2019-03-02T06:35:28.971Z,80
2019-03-02T06:35:38.140Z,80
2019-03-02T06:36:50.031Z,84
2019-03-02T06:37:57.354Z,88
2019-03-02T06:38:01.998Z,88
2019-03-02T06:39:15.744Z,92
2019-03-02T06:40:28.322Z,108
2019-03-02T06:41:35.523Z,124
2019-03-02T06:41:41.191Z,124
2019-03-02T06:42:47.909Z,140
2019-03-02T06:42:55.421Z,136
2019-03-02T06:44:00.071Z,156
2019-03-02T06:44:06.360Z,160
2019-03-02T06:45:11.804Z,184
2019-03-02T06:46:12.052Z,208
2019-03-02T06:46:24.587Z,212
2019-03-02T06:47:24.633Z,228
2019-03-02T06:48:26.037Z,248
2019-03-02T06:49:26.169Z,252
2019-03-02T06:50:27.134Z,256
2019-03-02T06:51:27.550Z,256
2019-03-02T06:52:28.511Z,264
2019-03-02T06:53:28.916Z,288
2019-03-02T06:54:29.327Z,296
2019-03-02T06:55:30.582Z,312
2019-03-02T06:56:42.877Z,356
2019-03-02T06:57:56.235Z,396
2019-03-02T06:58:56.548Z,420
2019-03-02T06:59:56.960Z,440
2019-03-02T07:00:57.364Z,468
2019-03-02T07:02:02.537Z,496
2019-03-02T07:03:02.275Z,532
2019-03-02T07:04:02.963Z,548
2019-03-02T07:05:04.211Z,584
2019-03-02T07:06:03.900Z,660
2019-03-02T07:07:06.893Z,736
2019-03-02T07:08:05.869Z,772
2019-03-02T07:09:12.178Z,816
2019-03-02T07:09:18.730Z,820
2019-03-02T07:10:25.003Z,832
2019-03-02T07:11:24.691Z,864
2019-03-02T07:12:24.824Z,824
2019-03-02T07:13:25.512Z,772
2019-03-02T07:14:32.253Z,720
2019-03-02T07:14:37.974Z,716
2019-03-02T07:15:45.900Z,748
2019-03-02T07:15:51.114Z,752
2019-03-02T07:16:58.405Z,780
2019-03-02T07:17:05.530Z,780
2019-03-02T07:18:09.454Z,792
2019-03-02T07:19:10.136Z,812
2019-03-02T07:19:23.457Z,812
2019-03-02T07:20:29.706Z,768
2019-03-02T07:20:35.616Z,768
2019-03-02T07:21:47.373Z,720
2019-03-02T07:22:54.440Z,700
2019-03-02T07:22:59.674Z,700
2019-03-02T07:24:00.210Z,704
2019-03-02T07:25:07.273Z,708
2019-03-02T07:25:15.838Z,708
2019-03-02T07:26:27.700Z,720
2019-03-02T07:27:31.826Z,728
2019-03-02T07:28:32.515Z,764
2019-03-02T07:29:34.018Z,788
2019-03-02T07:30:34.982Z,812
2019-03-02T07:31:35.667Z,820
2019-03-02T07:32:36.073Z,832
2019-03-02T07:33:36.483Z,844
2019-03-02T07:34:36.891Z,872
2019-03-02T07:34:48.933Z,880
2019-03-02T07:36:01.490Z,896
2019-03-02T07:37:01.672Z,904
2019-03-02T07:38:02.651Z,920
2019-03-02T07:39:03.339Z,960
2019-03-02T07:40:16.605Z,980
2019-03-02T07:41:30.024Z,1004
2019-03-02T07:42:36.322Z,988
2019-03-02T07:42:42.170Z,984
2019-03-02T07:43:48.924Z,956
2019-03-02T07:43:55.076Z,952
2019-03-02T07:45:01.139Z,960
2019-03-02T07:45:07.953Z,960
2019-03-02T07:46:14.203Z,980
2019-03-02T07:46:20.639Z,980
2019-03-02T07:47:26.471Z,992
2019-03-02T07:47:32.877Z,992
2019-03-02T07:48:38.604Z,996
2019-03-02T07:49:35.292Z,1012
2019-03-02T07:50:36.700Z,1028
2019-03-02T07:51:43.907Z,1008
2019-03-02T07:51:49.430Z,1008
2019-03-02T07:52:55.493Z,1004
2019-03-02T07:53:53.179Z,1008
2019-03-02T07:55:00.100Z,1008
2019-03-02T07:55:05.632Z,1008
2019-03-02T07:56:06.190Z,996
2019-03-02T07:57:11.140Z,992
2019-03-02T07:58:19.642Z,1004
2019-03-02T07:58:23.632Z,1000
2019-03-02T07:59:36.311Z,992
2019-03-02T08:00:42.996Z,984
2019-03-02T08:00:49.194Z,988
2019-03-02T08:01:54.865Z,1016
2019-03-02T08:02:01.649Z,1020
2019-03-02T08:03:02.492Z,1064
2019-03-02T08:04:03.463Z,1076
2019-03-02T08:05:04.708Z,1084
2019-03-02T08:06:05.409Z,1096
2019-03-02T08:07:07.499Z,1096
2019-03-02T08:08:20.515Z,1076
2019-03-02T08:09:33.655Z,1048
2019-03-02T08:10:41.255Z,1028
2019-03-02T08:10:46.262Z,1024
2019-03-02T08:11:51.870Z,1000
2019-03-02T08:12:51.762Z,1000
2019-03-02T08:13:52.726Z,976
2019-03-02T08:14:53.157Z,984
2019-03-02T08:16:06.938Z,988
2019-03-02T08:17:19.896Z,988
2019-03-02T08:18:33.372Z,1012
2019-03-02T08:19:34.247Z,1020
2019-03-02T08:20:34.933Z,1036
2019-03-02T08:21:38.027Z,1052
2019-03-02T08:22:50.588Z,1056
2019-03-02T08:23:50.992Z,1060
2019-03-02T08:24:52.682Z,1052
2019-03-02T08:25:53.098Z,1036
2019-03-02T08:26:53.063Z,1020
2019-03-02T08:27:54.755Z,1048
2019-03-02T08:28:55.164Z,1080
2019-03-02T08:30:00.045Z,1120
2019-03-02T08:31:00.501Z,1164
2019-03-02T08:32:01.745Z,1196
2019-03-02T08:33:01.717Z,1216
2019-03-02T08:34:02.223Z,1232
2019-03-02T08:34:14.549Z,1232
2019-03-02T08:35:15.700Z,1240
2019-03-02T08:36:19.960Z,1240
2019-03-02T08:37:19.100Z,1244
2019-03-02T08:38:19.792Z,1260
2019-03-02T08:39:20.328Z,1288
2019-03-02T08:40:26.252Z,1332
2019-03-02T08:41:27.098Z,1340
2019-03-02T08:42:27.513Z,1352
2019-03-02T08:43:27.927Z,1376
2019-03-02T08:44:28.638Z,1408
2019-03-02T08:45:33.571Z,1416
2019-03-02T08:46:34.539Z,1448
2019-03-02T08:47:34.969Z,1508
2019-03-02T08:48:35.386Z,1572
2019-03-02T08:49:48.404Z,1616
2019-03-02T08:50:55.094Z,1668
2019-03-02T08:51:00.829Z,1672
2019-03-02T08:52:02.206Z,1740
2019-03-02T08:53:02.453Z,1752
2019-03-02T08:54:02.588Z,1776
2019-03-02T08:55:03.277Z,1804
2019-03-02T08:56:16.465Z,1872
2019-03-02T08:57:31.009Z,1936
2019-03-02T08:58:32.187Z,1960
2019-03-02T08:59:40.017Z,1964
2019-03-02T08:59:44.935Z,1960
2019-03-02T09:00:46.136Z,1944
2019-03-02T09:01:46.827Z,1908
2019-03-02T09:02:47.268Z,1864
2019-03-02T09:03:47.959Z,1896
2019-03-02T09:04:52.782Z,1960
2019-03-02T09:05:53.188Z,1996
2019-03-02T09:06:14.256Z,2004
2019-03-02T09:07:14.386Z,2100
2019-03-02T09:08:14.790Z,2044
2019-03-02T09:09:15.923Z,2072
2019-03-02T09:10:16.891Z,2092
2019-03-02T09:11:18.141Z,2120
2019-03-02T09:12:24.367Z,2140
2019-03-02T09:12:31.165Z,2140
2019-03-02T09:13:36.899Z,2116
2019-03-02T09:13:43.339Z,2112
2019-03-02T09:14:56.074Z,2096
2019-03-02T09:15:57.224Z,2080
2019-03-02T09:16:08.730Z,2080
2019-03-02T09:17:09.570Z,2076
2019-03-02T09:18:10.258Z,2068
2019-03-02T09:19:10.392Z,2088
2019-03-02T09:20:12.507Z,2140
2019-03-02T09:21:15.596Z,2184
2019-03-02T09:22:15.012Z,2256
2019-03-02T09:23:16.837Z,2364
2019-03-02T09:24:16.972Z,2456
2019-03-02T09:25:19.930Z,2520
2019-03-02T09:25:31.291Z,2540
2019-03-02T09:26:30.582Z,2648
2019-03-02T09:27:31.828Z,2740
2019-03-02T09:28:31.520Z,2832
2019-03-02T09:29:32.497Z,2960
2019-03-02T09:30:33.195Z,3160
2019-03-02T09:31:40.731Z,3340
2019-03-02T09:31:48.509Z,3352
2019-03-02T09:32:54.127Z,3428
2019-03-02T09:32:59.680Z,3432
2019-03-02T09:34:06.285Z,3544
2019-03-02T09:34:12.295Z,3552
2019-03-02T09:35:18.448Z,3696
2019-03-02T09:35:25.207Z,3708
2019-03-02T09:36:38.129Z,3736
2019-03-02T09:37:45.079Z,3724
2019-03-02T09:37:50.289Z,3724
2019-03-02T09:39:03.089Z,3636
2019-03-02T09:40:06.557Z,3624
2019-03-02T09:40:16.463Z,3628
2019-03-02T09:41:16.433Z,3732
2019-03-02T09:42:16.845Z,3816
2019-03-02T09:43:18.580Z,3884
2019-03-02T09:44:18.732Z,3848
2019-03-02T09:45:19.706Z,3684
2019-03-02T09:46:32.474Z,3452
2019-03-02T09:47:16.869Z,3344
2019-03-02T09:48:20.850Z,3224
2019-03-02T09:48:29.624Z,3208
2019-03-02T09:49:37.321Z,3096
2019-03-02T09:49:42.857Z,3080
2019-03-02T09:50:43.551Z,3016
2019-03-02T09:51:50.515Z,3012
2019-03-02T09:51:58.646Z,3012
2019-03-02T09:52:58.472Z,3040
2019-03-02T09:53:59.441Z,3136
2019-03-02T09:55:00.148Z,3220
2019-03-02T09:56:00.987Z,3264
2019-03-02T09:57:01.675Z,3292
2019-03-02T09:58:02.844Z,3316
2019-03-02T09:59:04.649Z,3288
2019-03-02T10:00:06.066Z,3236
2019-03-02T10:01:07.035Z,3144
2019-03-02T10:02:14.347Z,3064
2019-03-02T10:02:20.068Z,3060
2019-03-02T10:03:31.931Z,3096
2019-03-02T10:04:40.131Z,3232
2019-03-02T10:04:44.929Z,3248
2019-03-02T10:05:52.380Z,3440
2019-03-02T10:05:58.654Z,3452
2019-03-02T10:07:04.711Z,3600
2019-03-02T10:07:11.097Z,3616
2019-03-02T10:08:15.888Z,3684
2019-03-02T10:09:15.850Z,3720
2019-03-02T10:10:16.593Z,3736
2019-03-02T10:11:17.286Z,3756
2019-03-02T10:12:18.036Z,3800
2019-03-02T10:13:19.451Z,3828
2019-03-02T10:14:32.150Z,3728
2019-03-02T10:15:32.551Z,3760
2019-03-02T10:16:34.638Z,3896
2019-03-02T10:17:40.811Z,3980
2019-03-02T10:17:47.788Z,3980
2019-03-02T10:18:52.355Z,4016
2019-03-02T10:19:51.770Z,4032
2019-03-02T10:20:52.182Z,4072
2019-03-02T10:21:53.321Z,4200
2019-03-02T10:22:55.141Z,4300
2019-03-02T10:23:55.559Z,4220
2019-03-02T10:24:55.993Z,4176
2019-03-02T10:25:59.561Z,4124
2019-03-02T10:26:10.530Z,4116
2019-03-02T10:27:10.399Z,4108
2019-03-02T10:28:11.099Z,4116
2019-03-02T10:29:13.370Z,4196
2019-03-02T10:30:13.787Z,4312
2019-03-02T10:31:15.074Z,4132
2019-03-02T10:32:15.774Z,3996
2019-03-02T10:33:15.926Z,3840
2019-03-02T10:34:18.904Z,3828
2019-03-02T10:35:19.620Z,3900
2019-03-02T10:36:19.602Z,4016
2019-03-02T10:37:21.276Z,4160
2019-03-02T10:38:21.779Z,4024
2019-03-02T10:39:22.195Z,4000
2019-03-02T10:40:25.270Z,4168
2019-03-02T10:41:25.409Z,4436
2019-03-02T10:42:26.824Z,4332
2019-03-02T10:43:28.351Z,4160
2019-03-02T10:44:29.049Z,4116
2019-03-02T10:45:29.481Z,4004
2019-03-02T10:46:31.177Z,4056
2019-03-02T10:47:31.001Z,3928
2019-03-02T10:48:32.418Z,3848
2019-03-02T10:49:32.844Z,3836
2019-03-02T10:50:33.545Z,3840
2019-03-02T10:51:39.503Z,3724
2019-03-02T10:51:48.109Z,3704
2019-03-02T10:52:51.178Z,3636
2019-03-02T10:53:48.883Z,3500
2019-03-02T10:54:49.297Z,3480
2019-03-02T10:55:51.117Z,3488
2019-03-02T10:56:51.825Z,3444
2019-03-02T10:57:53.352Z,3404
2019-03-02T10:58:53.492Z,3356
2019-03-02T10:59:54.910Z,3308
2019-03-02T11:00:55.324Z,3244
2019-03-02T11:01:56.020Z,3176
2019-03-02T11:02:59.035Z,3152
2019-03-02T11:03:58.450Z,3164
2019-03-02T11:04:59.145Z,3116
2019-03-02T11:06:00.438Z,3060
2019-03-02T11:07:01.135Z,3036
2019-03-02T11:07:14.609Z,3028
2019-03-02T11:07:59.770Z,2992
2019-03-02T11:09:06.324Z,2956
2019-03-02T11:09:24.709Z,2944
2019-03-02T11:10:27.384Z,2908
2019-03-02T11:11:38.146Z,2924
2019-03-02T11:12:50.334Z,2956
2019-03-02T11:13:57.340Z,3060
2019-03-02T11:14:02.965Z,3076
2019-03-02T11:15:09.603Z,3164
2019-03-02T11:15:16.156Z,3172
2019-03-02T11:16:17.153Z,3188
2019-03-02T11:17:29.915Z,3180
2019-03-02T11:18:36.680Z,3156
2019-03-02T11:18:41.707Z,3160
2019-03-02T11:19:49.168Z,3124
2019-03-02T11:19:54.122Z,3124
2019-03-02T11:21:01.549Z,3096
2019-03-02T11:21:07.088Z,3088
2019-03-02T11:22:21.570Z,3036
2019-03-02T11:23:24.547Z,3080
2019-03-02T11:24:22.719Z,3168
2019-03-02T11:25:23.152Z,3236
2019-03-02T11:26:23.845Z,3292
2019-03-02T11:27:23.986Z,3312
2019-03-02T11:28:24.970Z,3328
2019-03-02T11:29:25.387Z,3280
2019-03-02T11:30:25.640Z,3220
2019-03-02T11:31:27.614Z,3104
2019-03-02T11:32:28.304Z,3056
2019-03-02T11:33:33.728Z,2988
2019-03-02T11:33:40.195Z,2988
2019-03-02T11:34:40.867Z,3000
2019-03-02T11:35:41.568Z,3044
2019-03-02T11:36:49.306Z,3024
2019-03-02T11:36:54.886Z,3016
2019-03-02T11:38:02.597Z,2952
2019-03-02T11:38:07.153Z,2948
2019-03-02T11:39:07.872Z,2940
2019-03-02T11:40:09.287Z,2904
2019-03-02T11:41:12.040Z,2864
2019-03-02T11:42:16.626Z,2812
2019-03-02T11:43:18.730Z,2752
2019-03-02T11:44:19.198Z,2684
2019-03-02T11:45:19.908Z,2612
2019-03-02T11:46:21.160Z,2532
2019-03-02T11:47:21.299Z,2448
2019-03-02T11:48:22.437Z,2412
2019-03-02T11:49:40.305Z,2340
2019-03-02T11:50:35.102Z,2268
2019-03-02T11:51:36.251Z,2188
2019-03-02T11:52:41.220Z,2148
2019-03-02T11:53:41.189Z,2156
2019-03-02T11:54:41.943Z,2180
2019-03-02T11:55:43.192Z,2212
2019-03-02T11:56:47.823Z,2208
2019-03-02T11:57:46.516Z,2192
2019-03-02T11:58:47.208Z,2216
2019-03-02T11:59:48.180Z,2232
2019-03-02T12:00:48.553Z,2216
2019-03-02T12:01:49.258Z,2208
2019-03-02T12:02:50.395Z,2236
2019-03-02T12:03:50.812Z,2280
2019-03-02T12:04:54.327Z,2276
2019-03-02T12:05:55.310Z,2256
2019-03-02T12:06:57.763Z,2272
2019-03-02T12:07:55.898Z,2248
2019-03-02T12:09:02.634Z,2236
2019-03-02T12:09:09.934Z,2236
2019-03-02T12:10:10.331Z,2228
2019-03-02T12:11:13.425Z,2224
2019-03-02T12:12:12.841Z,2224
2019-03-02T12:13:13.531Z,2228
2019-03-02T12:14:13.948Z,2236
2019-03-02T12:15:16.316Z,2236
2019-03-02T12:16:15.729Z,2192
2019-03-02T12:17:16.434Z,2152
2019-03-02T12:18:21.640Z,2144
2019-03-02T12:19:21.058Z,2160
2019-03-02T12:20:21.902Z,2200
2019-03-02T12:21:24.007Z,2264
2019-03-02T12:22:24.465Z,2380
2019-03-02T12:23:26.662Z,2524
2019-03-02T12:24:27.354Z,2656
2019-03-02T12:25:40.107Z,2788
2019-03-02T12:26:53.130Z,2864
2019-03-02T12:28:06.740Z,2908
2019-03-02T12:29:20.513Z,2900
2019-03-02T12:30:32.853Z,2896
2019-03-02T12:31:34.798Z,2848
2019-03-02T12:32:35.766Z,2796
2019-03-02T12:32:47.550Z,2788
2019-03-02T12:33:48.008Z,2760
2019-03-02T12:34:48.144Z,2724
2019-03-02T12:35:49.279Z,2684
2019-03-02T12:36:55.657Z,2616
2019-03-02T12:37:03.482Z,2616
2019-03-02T12:38:17.174Z,2552
2019-03-02T12:39:31.276Z,2488
2019-03-02T12:40:31.218Z,2452
2019-03-02T12:41:32.205Z,2392
2019-03-02T12:42:33.827Z,2360
2019-03-02T12:43:35.362Z,2324
2019-03-02T12:44:35.899Z,2292
2019-03-02T12:45:36.968Z,2284
2019-03-02T12:46:37.104Z,2296